Historyczne dane pomiarowe

Dodano dane terminowe – wersja testowa.

Dane z okresu 1951-2019

Wersja bazy: 1.34 [2019-03-16, lista zmian], aktualizacja planowana na 2019-04-15

Dane meteo z obszaru Polski uzyskane na podstawie danych udostępnionych przez Instytut Meteorologii i Gospodarki Wodnej – Państwowy Instytut Badawczy.

 

Wybierz Datę:    

       

TemperaturaWilgotnośćWiatrCiśnienieOpadyŚniegCzas trwania zjawisk
 Stacja t tx tn tng RH VA  wxwx mslp ppp RRR   cm mm wxwxwxwxwxwxwx
1999-08-14 15.0 19.0 10.8 7.4 89.0- 4.0 2.0---- 0.7------------
1999-08-13 15.3 21.0 12.5 9.1 85.5- 7.0 4.3---- 4.6------------
1999-08-12 16.4 22.6 12.4 10.4 90.3- 3.0 3.7---- 3.3------------
1999-08-11 18.1 23.0 15.2 11.4 95.5- 7.7 2.7---- 5.7------------
1999-08-10 19.3 25.0 14.0 9.9 90.3- 6.0 1.7---- 3.8------------
1999-08-09 20.9 27.9 14.0 11.3 85.8- 6.7 3.0---- 3.3------------
1999-08-08 16.9 20.4 14.2 10.5 93.8- 8.0 2.7---- 0.8------------
1999-08-07 19.5 26.4 13.5 7.9 78.8- 2.7 2.7---- 0.0------------
1999-08-06 20.2 27.9 11.6 6.4 72.3- 4.0 2.0---- 0.0------------
1999-08-05 18.8 27.1 9.9 4.6 72.5- 1.7 2.3---- 0.0------------
1999-08-04 17.9 26.6 9.4 3.7 80.8- 0.3 1.7---- 0.0------------
1999-08-03 17.7 26.5 9.0 3.2 75.0- 1.3 2.7---- 0.0------------
1999-08-02 17.1 25.0 9.0 2.7 73.0- 0.0 3.7---- 0.0------------
1999-08-01 17.7 24.5 9.6 3.7 70.5- 0.7 3.7---- 0.0------------
1999-07-31 19.0 26.0 11.0 4.8 69.5- 0.0 4.0---- 0.0------------
1999-07-30 17.8 25.0 9.8 4.6 73.0- 0.7 3.3---- 0.0------------
1999-07-29 17.5 24.0 9.5 4.2 77.3- 1.3 4.0---- 0.0------------
1999-07-28 16.8 23.0 9.5 4.0 68.8- 0.7 4.0---- 0.0------------
1999-07-27 16.4 22.4 9.8 4.7 73.8- 2.0 4.3---- 0.0------------
1999-07-26 17.3 20.5 14.2 9.9 87.8- 6.0 2.0---- 0.0------------
1999-07-25 19.5 24.0 15.9 13.8 84.3- 4.0 2.7---- 0.1------------
1999-07-24 18.0 22.5 14.2 12.6 79.8- 4.3 3.7---- 0.0------------
1999-07-23 18.6 22.4 14.4 10.5 73.5- 5.0 2.7---- 0.1------------
1999-07-22 18.3 22.2 15.5 13.9 79.5- 4.0 4.0---- 0.0------------
1999-07-21 22.0 27.9 18.3 16.8 74.0- 2.0 2.3---- 10.1------------
1999-07-20 21.3 28.4 11.8 7.9 72.5- 0.3 1.7---- 0.6------------
1999-07-19 19.4 24.8 13.7 10.3 83.0- 2.0 3.0---- 0.0------------
1999-07-18 18.3 25.4 11.0 6.8 81.0- 5.3 2.3---- 5.1------------
1999-07-17 16.0 22.0 11.0 6.1 81.0- 5.7 3.7---- 5.1------------
1999-07-16 16.5 21.0 12.8 9.6 79.8- 4.7 3.3---- 3.7------------
1999-07-15 17.0 20.0 15.4 14.8 91.3- 7.0 4.3---- 0.6------------
1999-07-14 20.4 26.5 17.4 17.0 83.3- 7.3 4.0---- 30.4------------
1999-07-13 22.4 28.1 14.2 10.6 59.0- 4.3 4.3---- 7.8------------
1999-07-12 21.3 28.0 12.2 7.9 68.0- 2.0 3.0---- 0.0------------
1999-07-11 21.0 27.4 11.5 6.8 63.3- 0.0 3.7---- 0.0------------
1999-07-10 18.6 24.8 11.6 7.4 69.0- 0.0 4.0---- 0.0------------
1999-07-09 17.7 23.5 12.0 9.9 71.0- 0.0 5.7---- 0.0------------
1999-07-08 18.2 21.5 15.9 14.5 96.0- 7.7 2.0---- 9.3------------
1999-07-07 18.1 22.0 15.8 15.5 91.0- 6.0 4.0---- 0.0------------
1999-07-06 23.2 31.1 18.4 17.5 71.5- 4.7 3.7---- 39.4------------
1999-07-05 24.6 32.4 15.2 11.6 66.5- 2.7 3.3---- 0.0------------
1999-07-04 22.6 29.8 16.5 11.6 68.3- 4.7 3.7---- 0.0------------
1999-07-03 18.6 23.5 11.6 7.6 79.0- 3.7 3.7---- 0.0------------
1999-07-02 17.4 20.5 15.4 13.0 91.0- 6.0 2.0---- 0.0------------
1999-07-01 19.7 26.0 12.0 7.7 69.0- 5.0 2.7---- 7.1------------
1999-06-30 19.0 24.9 10.5 6.5 71.8- 1.7 1.0---- 0.0------------
1999-06-29 19.2 25.5 15.9 14.1 79.8- 4.0 3.0---- 0.0------------
1999-06-28 21.6 28.4 10.8 6.4 69.5- 1.3 3.0---- 0.0------------
1999-06-27 19.6 26.0 12.4 8.0 62.8- 1.7 5.7---- 0.0------------
1999-06-26 14.2 19.5 8.0 4.2 81.8- 5.0 2.7---- 0.0------------
1999-06-25 12.5 14.9 8.9 5.8 88.8- 5.7 1.7---- 2.4------------
1999-06-24 12.9 15.9 10.4 8.9 92.5- 6.7 2.3---- 0.0------------
1999-06-23 11.5 13.4 10.3 10.3 95.8- 8.0 4.3---- 6.3------------
1999-06-22 13.7 15.5 12.0 10.1 91.8- 8.0 4.7---- 25.4------------
1999-06-21 17.9 22.4 14.7 14.7 81.0- 6.3 4.3---- 0.7------------
1999-06-20 19.0 22.8 15.3 12.0 88.5- 7.0 1.0---- 0.0------------
1999-06-19 18.9 25.6 14.0 10.5 92.3- 5.0 1.7---- 5.2------------
1999-06-18 17.1 20.3 14.6 12.2 87.5- 7.7 1.7---- 0.2------------
1999-06-17 17.8 22.8 13.8 10.5 88.8- 6.7 2.7---- 0.0------------
1999-06-16 17.5 21.6 14.4 13.9 91.5- 7.3 4.0---- 0.0------------
364.8 ms

 

Źródłem pochodzenia danych jest Instytut Meteorologii i Gospodarki Wodnej – Państwowy Instytut Badawczy. Dane Instytutu Meteorologii i Gospodarki Wodnej – Państwowego Instytutu Badawczego zostały przetworzone.

Dane źródłowe można odnaleźć na stronie https://dane.imgw.pl